createdAt,value
2022-11-14T00:00:43.679Z,56.40
2022-11-14T00:03:12.111Z,56.40
2022-11-14T00:05:42.083Z,56.40
2022-11-14T00:08:16.429Z,56.40
2022-11-14T00:10:46.392Z,56.40
2022-11-14T00:13:16.575Z,56.40
2022-11-14T00:15:45.204Z,56.40
2022-11-14T00:18:13.046Z,56.40
2022-11-14T00:20:40.859Z,56.40
2022-11-14T00:23:08.730Z,56.40
2022-11-14T00:25:36.532Z,56.40
2022-11-14T00:28:04.387Z,56.40
2022-11-14T00:30:33.537Z,56.40
2022-11-14T00:33:01.351Z,56.40
2022-11-14T00:35:29.166Z,56.40
2022-11-14T00:37:57.019Z,56.40
2022-11-14T00:40:24.873Z,56.40
2022-11-14T00:42:52.727Z,56.40
2022-11-14T00:45:20.687Z,56.40
2022-11-14T00:47:49.881Z,56.40
2022-11-14T00:50:18.096Z,56.40
2022-11-14T00:52:45.929Z,56.30
2022-11-14T00:55:13.750Z,56.40
2022-11-14T00:57:41.624Z,56.40
2022-11-14T01:00:11.232Z,56.40
2022-11-14T01:02:39.029Z,56.40
2022-11-14T01:05:08.707Z,56.30
2022-11-14T01:07:36.567Z,56.30
2022-11-14T01:10:04.700Z,56.30
2022-11-14T01:12:32.521Z,56.40
2022-11-14T01:15:00.379Z,56.40
2022-11-14T01:17:28.600Z,56.30
2022-11-14T01:19:56.453Z,56.30
2022-11-14T01:22:25.663Z,56.30
2022-11-14T01:24:55.125Z,56.30
2022-11-14T01:27:23.048Z,56.30
2022-11-14T01:29:50.927Z,56.30
2022-11-14T01:32:18.773Z,56.30
2022-11-14T01:34:47.679Z,56.20
2022-11-14T01:37:15.539Z,56.20
2022-11-14T01:39:44.733Z,56.30
2022-11-14T01:42:12.551Z,56.20
2022-11-14T01:44:46.732Z,56.30
2022-11-14T01:47:17.852Z,56.30
2022-11-14T01:49:48.485Z,56.20
2022-11-14T01:52:19.095Z,56.20
2022-11-14T01:54:52.623Z,56.30
2022-11-14T01:57:24.832Z,56.20
2022-11-14T01:59:56.598Z,56.20
2022-11-14T02:02:26.559Z,56.30
2022-11-14T02:04:58.364Z,56.20
2022-11-14T02:07:28.538Z,56.20
2022-11-14T02:09:58.289Z,56.20
2022-11-14T02:12:26.313Z,56.30
2022-11-14T02:14:58.094Z,56.20
2022-11-14T02:17:30.196Z,56.20
2022-11-14T02:20:07.294Z,56.20
2022-11-14T02:22:35.163Z,56.30
2022-11-14T02:25:03.421Z,56.20
2022-11-14T02:27:32.468Z,56.20
2022-11-14T02:30:06.303Z,56.20
2022-11-14T02:32:56.896Z,56.20
2022-11-14T02:35:23.284Z,56.20
2022-11-14T02:37:51.128Z,56.20
2022-11-14T02:40:19.191Z,56.20
2022-11-14T02:42:47.061Z,56.20
2022-11-14T02:45:15.145Z,56.20
2022-11-14T02:47:42.972Z,56.20
2022-11-14T02:50:11.212Z,56.20
2022-11-14T02:52:40.383Z,56.20
2022-11-14T02:55:08.866Z,56.20
2022-11-14T02:57:36.980Z,56.20
2022-11-14T03:00:08.806Z,56.20
2022-11-14T03:02:39.657Z,56.20
2022-11-14T03:05:07.972Z,56.20
2022-11-14T03:07:35.892Z,56.20
2022-11-14T03:10:06.151Z,56.20
2022-11-14T03:12:34.002Z,56.20
2022-11-14T03:15:02.076Z,56.10
2022-11-14T03:17:32.530Z,56.10
2022-11-14T03:20:00.671Z,56.20
2022-11-14T03:22:28.931Z,56.20
2022-11-14T03:24:56.821Z,56.20
2022-11-14T03:27:26.176Z,56.20
2022-11-14T03:29:54.026Z,56.20
2022-11-14T03:32:21.875Z,56.20
2022-11-14T03:34:49.724Z,56.20
2022-11-14T03:37:17.605Z,56.20
2022-11-14T03:39:45.465Z,56.10
2022-11-14T03:42:13.318Z,56.20
2022-11-14T03:44:42.670Z,56.20
2022-11-14T03:47:10.489Z,56.10
2022-11-14T03:49:38.329Z,56.20
2022-11-14T03:52:06.259Z,56.10
2022-11-14T03:54:34.136Z,56.20
2022-11-14T03:57:01.967Z,56.10
2022-11-14T03:59:29.803Z,56.10
2022-11-14T04:01:58.999Z,56.10
2022-11-14T04:04:26.819Z,56.80
2022-11-14T04:06:54.674Z,56.10
2022-11-14T04:09:22.529Z,56.10
2022-11-14T04:11:50.381Z,56.80
2022-11-14T04:14:18.227Z,56.10
2022-11-14T04:16:46.065Z,56.10
2022-11-14T04:19:15.263Z,56.10
2022-11-14T04:21:43.107Z,56.10
2022-11-14T04:24:11.391Z,56.10
2022-11-14T04:26:39.357Z,56.20
2022-11-14T04:29:07.180Z,56.10
2022-11-14T04:31:34.996Z,56.10
2022-11-14T04:34:02.991Z,56.10
2022-11-14T04:36:32.240Z,56.10
2022-11-14T04:39:00.124Z,56.10
2022-11-14T04:41:28.260Z,56.10
2022-11-14T04:43:56.111Z,56.70
2022-11-14T04:46:24.003Z,56.10
2022-11-14T04:48:51.816Z,56.10
2022-11-14T04:51:19.673Z,56.10
2022-11-14T04:53:48.840Z,56.10
2022-11-14T04:56:16.699Z,56.10
2022-11-14T04:58:44.536Z,56.10
2022-11-14T05:01:14.513Z,56.10
2022-11-14T05:03:42.442Z,56.10
2022-11-14T05:06:11.401Z,56.10
2022-11-14T05:08:39.249Z,56.10
2022-11-14T05:11:08.535Z,56.10
2022-11-14T05:13:36.354Z,56.10
2022-11-14T05:16:04.211Z,56.00
2022-11-14T05:18:32.603Z,56.00
2022-11-14T05:21:01.127Z,56.10
2022-11-14T05:23:29.294Z,56.00
2022-11-14T05:26:01.639Z,56.10
2022-11-14T05:28:31.659Z,56.10
2022-11-14T05:31:03.321Z,56.00
2022-11-14T05:33:31.276Z,56.10
2022-11-14T05:36:03.565Z,56.10
2022-11-14T05:38:31.709Z,56.10
2022-11-14T05:40:59.838Z,56.00
2022-11-14T05:43:31.808Z,56.00
2022-11-14T05:46:01.457Z,56.10
2022-11-14T05:48:30.261Z,56.00
2022-11-14T05:50:59.030Z,56.10
2022-11-14T05:53:28.087Z,56.10
2022-11-14T05:56:01.152Z,56.00
2022-11-14T05:58:29.593Z,56.00
2022-11-14T06:01:05.167Z,56.10
2022-11-14T06:03:34.259Z,56.10
2022-11-14T06:06:03.145Z,56.10
2022-11-14T06:08:32.167Z,56.10
2022-11-14T06:11:04.489Z,56.10
2022-11-14T06:13:32.341Z,56.00
2022-11-14T06:16:01.714Z,56.10
2022-11-14T06:18:32.091Z,56.10
2022-11-14T06:21:01.060Z,56.10
2022-11-14T06:23:29.444Z,56.00
2022-11-14T06:26:00.947Z,56.10
2022-11-14T06:28:29.172Z,56.10
2022-11-14T06:31:00.768Z,56.10
2022-11-14T06:33:30.605Z,56.00
2022-11-14T06:36:00.105Z,56.10
2022-11-14T06:38:28.722Z,56.00
2022-11-14T06:41:03.409Z,56.00
2022-11-14T06:43:34.219Z,56.10
2022-11-14T06:46:02.095Z,56.10
2022-11-14T06:48:32.137Z,56.10
2022-11-14T06:51:01.858Z,56.00
2022-11-14T06:53:31.650Z,56.10
2022-11-14T06:56:00.908Z,56.00
2022-11-14T06:58:30.055Z,56.10
2022-11-14T07:00:58.508Z,56.10
2022-11-14T07:03:26.406Z,56.10
2022-11-14T07:05:58.521Z,56.10
2022-11-14T07:08:26.436Z,56.00
2022-11-14T07:10:54.532Z,56.10
2022-11-14T07:13:22.356Z,56.10
2022-11-14T07:15:53.987Z,56.10
2022-11-14T07:18:22.164Z,56.10
2022-11-14T07:20:49.988Z,56.00
2022-11-14T07:23:22.852Z,56.00
2022-11-14T07:25:51.099Z,56.00
2022-11-14T07:28:19.073Z,56.10
2022-11-14T07:30:46.955Z,56.00
2022-11-14T07:33:14.773Z,56.00
2022-11-14T07:35:42.623Z,56.00
2022-11-14T07:38:10.439Z,56.10
2022-11-14T07:40:39.598Z,56.00
2022-11-14T07:43:07.454Z,56.00
2022-11-14T07:45:35.437Z,56.00
2022-11-14T07:48:03.469Z,56.00
2022-11-14T07:50:31.698Z,56.00
2022-11-14T07:52:59.520Z,56.00
2022-11-14T07:55:27.333Z,56.00
2022-11-14T07:57:56.856Z,56.00
2022-11-14T08:00:24.689Z,56.00
2022-11-14T08:02:52.531Z,56.00
2022-11-14T08:05:20.434Z,56.00
2022-11-14T08:07:48.344Z,56.00
2022-11-14T08:10:17.712Z,56.00
2022-11-14T08:12:46.399Z,56.00
2022-11-14T08:15:15.787Z,56.00
2022-11-14T08:17:43.602Z,56.00
2022-11-14T08:20:12.322Z,56.00
2022-11-14T08:22:40.151Z,56.00
2022-11-14T08:25:08.772Z,56.00
2022-11-14T08:27:36.625Z,56.10
2022-11-14T08:30:05.194Z,56.10
2022-11-14T08:32:34.443Z,56.10
2022-11-14T08:35:02.298Z,56.00
2022-11-14T08:37:30.116Z,56.00
2022-11-14T08:39:58.004Z,56.00
2022-11-14T08:42:25.944Z,56.10
2022-11-14T08:44:53.801Z,56.10
2022-11-14T08:47:21.630Z,56.10
2022-11-14T08:49:50.820Z,56.00
2022-11-14T08:52:18.650Z,56.10
2022-11-14T08:54:46.487Z,56.10
2022-11-14T08:57:15.316Z,56.00
2022-11-14T08:59:43.228Z,56.00
2022-11-14T09:02:11.717Z,56.00
2022-11-14T09:04:39.580Z,56.10
2022-11-14T09:07:08.866Z,56.10
2022-11-14T09:09:36.751Z,56.10
2022-11-14T09:12:04.909Z,56.00
2022-11-14T09:14:32.769Z,56.10
2022-11-14T09:17:05.501Z,56.10
2022-11-14T09:19:33.844Z,56.00
2022-11-14T09:22:01.675Z,56.00
2022-11-14T09:24:30.855Z,56.10
2022-11-14T09:26:58.729Z,56.00
2022-11-14T09:29:26.574Z,56.00
2022-11-14T09:31:55.134Z,56.00
2022-11-14T09:34:23.086Z,56.10
2022-11-14T09:36:50.902Z,56.10
2022-11-14T09:39:18.961Z,56.10
2022-11-14T09:42:07.101Z,56.10
2022-11-14T09:44:50.992Z,56.10
2022-11-14T09:47:23.538Z,56.00
2022-11-14T09:49:54.772Z,56.10
2022-11-14T09:52:29.928Z,56.10
2022-11-14T09:55:00.079Z,56.10
2022-11-14T09:57:30.090Z,56.10
2022-11-14T09:59:58.065Z,56.10
2022-11-14T10:02:37.234Z,56.10
2022-11-14T10:05:18.796Z,56.10
2022-11-14T10:07:58.771Z,56.10
2022-11-14T10:10:39.148Z,56.10
2022-11-14T10:13:18.521Z,56.10
2022-11-14T10:15:54.357Z,56.10
2022-11-14T10:18:36.721Z,56.10
2022-11-14T10:21:15.848Z,56.10
2022-11-14T10:23:53.007Z,56.10
2022-11-14T10:26:30.030Z,56.10
2022-11-14T10:29:28.510Z,56.10
2022-11-14T10:32:06.154Z,56.10
2022-11-14T10:34:41.685Z,56.20
2022-11-14T10:37:18.518Z,56.10
2022-11-14T10:39:51.128Z,56.20
2022-11-14T10:42:24.558Z,56.20
2022-11-14T10:45:02.121Z,56.20
2022-11-14T10:47:37.784Z,56.20
2022-11-14T10:50:17.016Z,56.20
2022-11-14T10:52:46.681Z,56.80
2022-11-14T10:55:17.836Z,56.20
2022-11-14T10:57:47.307Z,56.20
2022-11-14T11:00:19.446Z,56.20
2022-11-14T11:02:53.245Z,56.20
2022-11-14T11:05:23.033Z,56.20
2022-11-14T11:08:36.307Z,56.20
2022-11-14T11:11:18.069Z,56.20
2022-11-14T11:13:54.040Z,56.20
2022-11-14T11:16:26.316Z,56.30
2022-11-14T11:18:54.499Z,56.20
2022-11-14T11:21:24.007Z,56.20
2022-11-14T11:23:54.068Z,56.30
2022-11-14T11:26:24.412Z,56.20
2022-11-14T11:29:05.168Z,56.30
2022-11-14T11:31:51.620Z,56.30
2022-11-14T11:34:26.269Z,56.30
2022-11-14T11:36:58.938Z,56.30
2022-11-14T11:39:30.835Z,56.30
2022-11-14T11:42:09.399Z,56.30
2022-11-14T11:44:41.810Z,56.30
2022-11-14T11:47:15.386Z,56.30
2022-11-14T11:49:53.027Z,56.30
2022-11-14T11:52:31.280Z,56.20
2022-11-14T11:55:04.412Z,56.30
2022-11-14T11:57:35.792Z,56.30
2022-11-14T12:00:08.295Z,56.30
2022-11-14T12:02:46.384Z,56.30
2022-11-14T12:05:19.665Z,56.30
2022-11-14T12:07:55.951Z,56.30
2022-11-14T12:10:27.613Z,56.20
2022-11-14T12:13:23.196Z,56.30
2022-11-14T12:16:08.909Z,56.30
2022-11-14T12:19:02.814Z,56.20
2022-11-14T12:21:52.011Z,56.30
2022-11-14T12:24:57.764Z,56.30
2022-11-14T12:27:38.779Z,56.30
2022-11-14T12:30:14.809Z,56.30
2022-11-14T12:32:46.361Z,56.40
2022-11-14T12:35:21.516Z,56.40
2022-11-14T12:37:55.556Z,56.40
2022-11-14T12:40:30.445Z,56.40
2022-11-14T12:42:59.896Z,56.40
2022-11-14T12:46:00.005Z,56.40
2022-11-14T12:48:33.719Z,56.40
2022-11-14T12:51:04.955Z,56.40
2022-11-14T12:53:43.388Z,56.40
2022-11-14T12:56:31.273Z,56.40
2022-11-14T12:59:34.851Z,56.40
2022-11-14T13:02:23.538Z,56.40
2022-11-14T13:05:10.325Z,56.40
2022-11-14T13:07:50.306Z,56.40
2022-11-14T13:10:27.893Z,56.40
2022-11-14T13:13:18.359Z,56.40
2022-11-14T13:16:09.938Z,56.40
2022-11-14T13:19:08.545Z,56.40
2022-11-14T13:21:48.683Z,56.40
2022-11-14T13:24:20.033Z,56.40
2022-11-14T13:26:53.182Z,56.40
2022-11-14T13:29:49.934Z,56.40
2022-11-14T13:33:06.160Z,56.40
2022-11-14T13:35:52.906Z,56.40
2022-11-14T13:39:03.108Z,56.40
2022-11-14T13:42:02.544Z,56.40
2022-11-14T13:44:58.937Z,56.40
2022-11-14T13:48:02.856Z,56.40
2022-11-14T13:50:33.091Z,56.40
2022-11-14T13:53:01.215Z,56.40
2022-11-14T13:55:37.683Z,56.40
2022-11-14T13:58:18.403Z,56.40
2022-11-14T14:01:01.652Z,56.40
2022-11-14T14:03:48.237Z,56.40
2022-11-14T14:06:39.621Z,56.40
2022-11-14T14:09:26.455Z,56.40
2022-11-14T14:12:15.784Z,56.40
2022-11-14T14:15:04.132Z,56.40
2022-11-14T14:17:38.849Z,56.40
2022-11-14T14:20:20.862Z,56.40
2022-11-14T14:22:57.164Z,56.40
2022-11-14T14:25:30.451Z,56.40
2022-11-14T14:28:07.106Z,56.40
2022-11-14T14:30:36.361Z,56.40
2022-11-14T14:33:11.896Z,56.40
2022-11-14T14:35:41.092Z,56.50
2022-11-14T14:38:13.271Z,56.40
2022-11-14T14:40:43.104Z,56.40
2022-11-14T14:43:23.207Z,56.40
2022-11-14T14:45:54.864Z,57.10
2022-11-14T14:48:26.842Z,56.40
2022-11-14T14:50:56.980Z,56.40
2022-11-14T14:53:27.543Z,56.50
2022-11-14T14:55:58.004Z,56.40
2022-11-14T14:58:29.613Z,56.40
2022-11-14T15:01:01.405Z,56.40
2022-11-14T15:03:36.721Z,56.40
2022-11-14T15:06:07.616Z,56.40
2022-11-14T15:08:38.242Z,56.40
2022-11-14T15:11:07.908Z,56.40
2022-11-14T15:13:38.581Z,56.40
2022-11-14T15:16:09.034Z,56.50
2022-11-14T15:18:37.034Z,56.40
2022-11-14T15:21:09.861Z,56.40
2022-11-14T15:23:39.382Z,56.50
2022-11-14T15:26:14.595Z,56.40
2022-11-14T15:28:42.479Z,56.50
2022-11-14T15:31:19.264Z,56.40
2022-11-14T15:34:00.777Z,56.40
2022-11-14T15:36:28.649Z,56.40
2022-11-14T15:39:01.104Z,56.40
2022-11-14T15:41:30.608Z,56.40
2022-11-14T15:44:02.712Z,56.50
2022-11-14T15:46:41.178Z,56.40
2022-11-14T15:49:17.593Z,56.40
2022-11-14T15:51:48.009Z,56.40
2022-11-14T15:54:28.109Z,56.40
2022-11-14T15:56:57.728Z,56.50
2022-11-14T15:59:26.418Z,56.50
2022-11-14T16:02:00.198Z,56.40
2022-11-14T16:04:31.914Z,56.50
2022-11-14T16:06:59.801Z,56.50
2022-11-14T16:09:27.696Z,56.40
2022-11-14T16:11:55.522Z,56.50
2022-11-14T16:14:23.351Z,56.40
2022-11-14T16:16:51.195Z,56.40
2022-11-14T16:19:21.873Z,56.40
2022-11-14T16:21:49.957Z,56.40
2022-11-14T16:24:20.119Z,56.40
2022-11-14T16:26:47.995Z,56.50
2022-11-14T16:29:16.453Z,56.40
2022-11-14T16:31:44.745Z,56.40
2022-11-14T16:34:17.629Z,56.50
2022-11-14T16:36:48.486Z,56.50
2022-11-14T16:39:16.555Z,56.40
2022-11-14T16:41:44.398Z,56.50
2022-11-14T16:44:16.583Z,56.50
2022-11-14T16:46:45.153Z,56.50
2022-11-14T16:49:15.124Z,56.50
2022-11-14T16:51:48.469Z,56.50
2022-11-14T16:54:19.174Z,56.50
2022-11-14T16:56:47.174Z,56.50
2022-11-14T16:59:15.318Z,56.50
2022-11-14T17:01:43.703Z,56.50
2022-11-14T17:04:11.616Z,56.50
2022-11-14T17:06:39.658Z,56.50
2022-11-14T17:09:07.827Z,56.50
2022-11-14T17:11:36.992Z,56.50
2022-11-14T17:14:05.057Z,56.50
2022-11-14T17:16:32.929Z,56.50
2022-11-14T17:19:00.951Z,56.50
2022-11-14T17:21:28.789Z,56.60
2022-11-14T17:23:56.945Z,56.50
2022-11-14T17:26:25.174Z,56.50
2022-11-14T17:28:54.540Z,56.60
2022-11-14T17:31:22.457Z,56.50
2022-11-14T17:33:54.102Z,56.60
2022-11-14T17:36:22.846Z,56.50
2022-11-14T17:38:50.684Z,56.60
2022-11-14T17:41:18.937Z,56.60
2022-11-14T17:43:46.822Z,56.70
2022-11-14T17:46:16.565Z,56.50
2022-11-14T17:48:44.647Z,56.60
2022-11-14T17:51:14.108Z,56.50
2022-11-14T17:53:42.581Z,56.60
2022-11-14T17:56:14.716Z,56.60
2022-11-14T17:58:43.111Z,56.50
2022-11-14T18:01:12.576Z,56.60
2022-11-14T18:03:42.072Z,56.50
2022-11-14T18:06:11.481Z,56.60
2022-11-14T18:08:39.443Z,56.60
2022-11-14T18:11:09.882Z,56.60
2022-11-14T18:13:38.270Z,56.50
2022-11-14T18:16:08.992Z,56.50
2022-11-14T18:18:37.382Z,56.60
2022-11-14T18:21:11.817Z,56.60
2022-11-14T18:23:39.701Z,56.60
2022-11-14T18:26:11.582Z,56.60
2022-11-14T18:28:39.414Z,56.60
2022-11-14T18:31:10.557Z,56.60
2022-11-14T18:33:38.875Z,56.60
2022-11-14T18:36:09.716Z,56.60
2022-11-14T18:38:38.970Z,56.60
2022-11-14T18:41:09.244Z,56.60
2022-11-14T18:43:37.115Z,56.60
2022-11-14T18:46:06.696Z,56.60
2022-11-14T18:48:34.759Z,56.60
2022-11-14T18:51:02.979Z,56.60
2022-11-14T18:53:34.858Z,56.60
2022-11-14T18:56:06.529Z,56.60
2022-11-14T18:58:35.989Z,56.60
2022-11-14T19:01:10.656Z,56.60
2022-11-14T19:03:38.719Z,56.60
2022-11-14T19:06:08.225Z,56.60
2022-11-14T19:08:36.167Z,56.60
2022-11-14T19:11:07.390Z,56.60
2022-11-14T19:13:35.436Z,56.60
2022-11-14T19:16:03.908Z,56.60
2022-11-14T19:18:32.436Z,56.60
2022-11-14T19:21:01.665Z,56.60
2022-11-14T19:23:31.373Z,56.60
2022-11-14T19:26:00.730Z,56.60
2022-11-14T19:28:30.293Z,56.60
2022-11-14T19:31:02.911Z,56.60
2022-11-14T19:33:31.380Z,56.60
2022-11-14T19:35:59.661Z,56.60
2022-11-14T19:38:27.538Z,56.60
2022-11-14T19:40:55.377Z,56.60
2022-11-14T19:43:25.281Z,56.60
2022-11-14T19:45:56.042Z,56.60
2022-11-14T19:48:24.508Z,56.60
2022-11-14T19:51:00.321Z,56.60
2022-11-14T19:53:28.469Z,56.60
2022-11-14T19:56:01.065Z,56.60
2022-11-14T19:58:28.966Z,56.60
2022-11-14T20:01:03.164Z,56.60
2022-11-14T20:03:31.439Z,56.60
2022-11-14T20:05:59.985Z,56.60
2022-11-14T20:08:28.254Z,56.60
2022-11-14T20:11:00.345Z,56.60
2022-11-14T20:13:31.623Z,56.70
2022-11-14T20:15:59.876Z,56.60
2022-11-14T20:18:30.241Z,56.60
2022-11-14T20:21:02.894Z,56.60
2022-11-14T20:23:31.190Z,56.60
2022-11-14T20:25:59.500Z,56.60
2022-11-14T20:28:27.799Z,56.60
2022-11-14T20:30:55.887Z,56.60
2022-11-14T20:33:23.864Z,56.60
2022-11-14T20:35:53.210Z,56.60
2022-11-14T20:38:21.197Z,56.70
2022-11-14T20:40:55.541Z,56.60
2022-11-14T20:43:23.576Z,56.60
2022-11-14T20:45:58.951Z,56.60
2022-11-14T20:48:27.939Z,56.60
2022-11-14T20:51:04.475Z,56.60
2022-11-14T20:53:33.273Z,56.60
2022-11-14T20:56:02.118Z,56.60
2022-11-14T20:58:30.186Z,56.60
2022-11-14T21:00:58.555Z,56.60
2022-11-14T21:03:27.039Z,56.60
2022-11-14T21:05:54.925Z,56.60
2022-11-14T21:08:24.189Z,56.60
2022-11-14T21:10:58.212Z,56.60
2022-11-14T21:13:43.620Z,56.60
2022-11-14T21:16:13.246Z,56.60
2022-11-14T21:18:45.285Z,56.60
2022-11-14T21:21:17.816Z,56.60
2022-11-14T21:23:48.150Z,56.60
2022-11-14T21:26:18.057Z,56.60
2022-11-14T21:28:48.002Z,56.60
2022-11-14T21:31:21.065Z,56.60
2022-11-14T21:33:50.119Z,56.70
2022-11-14T21:39:07.952Z,56.60
2022-11-14T21:41:35.821Z,56.70
2022-11-14T21:44:04.682Z,56.60
2022-11-14T21:46:32.599Z,56.70
2022-11-14T21:49:00.479Z,56.70
2022-11-14T21:51:29.528Z,56.60
2022-11-14T21:53:59.324Z,56.70
2022-11-14T21:56:29.880Z,56.70
2022-11-14T22:02:11.176Z,56.60
2022-11-14T22:04:39.328Z,56.60
2022-11-14T22:07:08.643Z,56.60
2022-11-14T22:09:39.971Z,56.60
2022-11-14T22:12:12.019Z,56.70
2022-11-14T22:14:39.983Z,56.60
2022-11-14T22:17:09.160Z,56.70
2022-11-14T22:19:37.040Z,56.60
2022-11-14T22:22:04.935Z,56.70
2022-11-14T22:24:32.863Z,56.60
2022-11-14T22:27:00.749Z,56.70
2022-11-14T22:29:28.605Z,56.60
2022-11-14T22:31:56.850Z,56.70
2022-11-14T22:34:26.073Z,56.70
2022-11-14T22:36:53.919Z,56.60
2022-11-14T22:39:21.763Z,56.60
2022-11-14T22:41:49.819Z,56.60
2022-11-14T22:44:17.675Z,56.70
2022-11-14T22:46:45.544Z,56.70
2022-11-14T22:49:17.141Z,56.60
2022-11-14T22:51:49.089Z,56.70
2022-11-14T22:54:16.964Z,56.60
2022-11-14T22:56:44.858Z,56.70
2022-11-14T22:59:12.731Z,56.70
2022-11-14T23:01:40.803Z,56.60
2022-11-14T23:04:09.775Z,56.70
2022-11-14T23:06:37.723Z,56.70
2022-11-14T23:09:07.952Z,56.60
2022-11-14T23:11:35.820Z,56.70
2022-11-14T23:14:04.067Z,56.60
2022-11-14T23:16:33.941Z,56.60
2022-11-14T23:19:03.843Z,56.70
2022-11-14T23:21:37.448Z,56.70
2022-11-14T23:24:09.419Z,56.70
2022-11-14T23:26:37.359Z,56.70
2022-11-14T23:29:05.265Z,56.70
2022-11-14T23:31:33.123Z,56.70
2022-11-14T23:34:01.021Z,56.70
2022-11-14T23:36:28.871Z,56.70
2022-11-14T23:38:56.981Z,56.70
2022-11-14T23:41:26.639Z,56.70
2022-11-14T23:43:54.613Z,56.70
2022-11-14T23:46:22.493Z,56.60
2022-11-14T23:48:50.741Z,56.70
2022-11-14T23:51:18.594Z,56.60
2022-11-14T23:53:46.869Z,56.70
2022-11-14T23:56:15.648Z,56.70
2022-11-14T23:58:45.099Z,56.60
